Pagrindinis puslapis
METAR-TAF:

METAR-TAF

Oro uostai :

Cape Newenham, Aliaska, Jungtinės Amerikos Valstijos

platuma: 58-39N, ilguma: 162-04W, Aukštis: 165 m

Dabartinis oras

Ataskaita buvo paskelbta 56 minutes, ne 20:55 UTC
Vėjas 7 kt iš Šiaurės
Temperatūra 7°C
Drėgmė 87%
Slėgis 987 hPa
Matomumas: 16.1 km
Mažai debesys ne aukštis 800 ft
Apsiniaukę ne aukštis 2800 ft

METAR: PAEH 302055Z AUTO 36007KT 10SM FEW008 OVC028 07/05 A2915 RMK AO2 SLP875 60002 T00690048 57013

Laikas: 13:51 (21:51 UTC)


TAF: trūkstamas

Orai ataskaitas ir orų prognozės (METAR, TAF).

turimą stotys yra geltonos ir raudonos taškus žemėlapyje.

Perkelti pele per norėdami pamatyti stoties vardą.

Tada spustelėkite, norėdami matyti oro stebėjimo ir prognozės.

Norėdami pakeisti žemėlapį: spustelėkite ant žalios mygtukų su juodo kryžiaus žemyn,; žalią mygtuką su brūkšneliu, jei norite nutolinti; arba žalių rodyklių gretimoms žemėlapius.


METAR-TAF: